Time;durP1;ratioP1;P1;durP2;ratioP2;P2;SDS_P1;SDS_P2;PMS_P1;PMS_P2;Temp;Humidity;BMP_temperature;BMP_pressure;BME280_temperature;BME280_humidity;BME280_pressure;Samples;Min_cycle;Max_cycle;Signal;HPM_P1;HPM_P2
2021/12/04 00:00:10;;;;;;;5.22;4.30;;;4.70;96.10;;;;;;2089069;28;20021;-91
2021/12/04 00:01:11;;;;;;;4.60;4.07;;;4.70;96.10;;;;;;2090566;28;20483;-91
2021/12/04 00:02:11;;;;;;;5.30;4.38;;;4.70;96.10;;;;;;2090577;28;20037;-92
2021/12/04 00:03:13;;;;;;;5.13;4.20;;;4.70;96.10;;;;;;2090162;28;20052;-90
2021/12/04 00:04:20;;;;;;;5.22;4.38;;;4.70;96.10;;;;;;2081823;28;20057;-90
2021/12/04 00:05:22;;;;;;;5.47;4.35;;;4.70;96.10;;;;;;2082248;28;20034;-92
2021/12/04 00:06:26;;;;;;;5.50;4.72;;;4.70;96.20;;;;;;2082145;28;20038;-92
2021/12/04 00:07:29;;;;;;;4.85;3.97;;;4.70;96.20;;;;;;2090441;28;20399;-91
2021/12/04 00:08:33;;;;;;;5.25;4.10;;;4.70;96.20;;;;;;2090296;28;20269;-92
2021/12/04 00:09:34;;;;;;;5.30;4.55;;;4.70;96.20;;;;;;2073455;28;20088;-92
2021/12/04 00:10:35;;;;;;;5.10;4.25;;;4.70;96.20;;;;;;2066597;28;20030;-91
2021/12/04 00:11:40;;;;;;;5.75;4.78;;;4.70;96.20;;;;;;2082247;28;20557;-90
2021/12/04 00:12:40;;;;;;;5.50;4.65;;;4.70;96.20;;;;;;2090446;28;20039;-91
2021/12/04 00:13:42;;;;;;;5.40;4.55;;;4.70;96.20;;;;;;2088869;28;20072;-91
2021/12/04 00:14:43;;;;;;;5.43;4.28;;;4.70;96.20;;;;;;2087997;28;20035;-92
2021/12/04 00:15:44;;;;;;;5.95;4.72;;;4.70;96.20;;;;;;2090364;28;20498;-92
2021/12/04 00:16:45;;;;;;;6.18;4.68;;;4.70;96.20;;;;;;2089917;28;20025;-92
2021/12/04 00:17:46;;;;;;;6.05;4.85;;;4.70;96.50;;;;;;2081637;28;20068;-91
2021/12/04 00:18:46;;;;;;;6.18;5.15;;;4.80;96.20;;;;;;2090402;28;20025;-91
2021/12/04 00:19:47;;;;;;;6.85;5.57;;;4.70;96.50;;;;;;2090274;28;20029;-89
2021/12/04 00:20:48;;;;;;;6.47;5.35;;;4.70;96.20;;;;;;2088804;28;20119;-92
2021/12/04 00:21:48;;;;;;;6.25;5.07;;;4.70;96.20;;;;;;2072252;28;20061;-90
2021/12/04 00:22:49;;;;;;;6.75;5.20;;;4.70;96.20;;;;;;2065781;28;20061;-91
2021/12/04 00:23:50;;;;;;;6.93;5.70;;;4.70;96.20;;;;;;2073286;28;20583;-91
2021/12/04 00:24:50;;;;;;;6.53;5.40;;;4.80;96.20;;;;;;2057141;28;20062;-91
2021/12/04 00:25:51;;;;;;;6.68;5.25;;;4.70;96.20;;;;;;2073734;28;20499;-91
2021/12/04 00:26:53;;;;;;;6.32;5.63;;;4.70;96.20;;;;;;2077997;28;20040;-91
2021/12/04 00:27:55;;;;;;;6.65;5.78;;;4.70;96.20;;;;;;2081838;28;20096;-91
2021/12/04 00:28:55;;;;;;;6.88;5.43;;;4.70;96.20;;;;;;2082633;28;20052;-91
2021/12/04 00:29:58;;;;;;;6.45;5.22;;;4.80;96.20;;;;;;2081271;28;20124;-91
2021/12/04 00:31:04;;;;;;;6.57;5.63;;;4.80;96.20;;;;;;2073686;28;20581;-92
2021/12/04 00:32:13;;;;;;;6.90;5.40;;;4.80;96.20;;;;;;2074162;28;20022;-91
2021/12/04 00:33:18;;;;;;;6.35;5.18;;;4.80;96.20;;;;;;2080066;28;20035;-91
2021/12/04 00:34:25;;;;;;;6.63;5.55;;;4.80;96.20;;;;;;2083520;28;20140;-92
2021/12/04 00:36:43;;;;;;;6.32;5.45;;;4.80;96.50;;;;;;2090865;28;20116;-90
2021/12/04 00:49:37;;;;;;;6.80;5.00;;;4.80;96.10;;;;;;2089849;28;20036;-91
2021/12/04 00:50:38;;;;;;;6.82;5.70;;;4.80;96.10;;;;;;2089921;28;20468;-91
2021/12/04 00:51:53;;;;;;;7.60;5.95;;;4.80;96.10;;;;;;2094321;28;20055;-88
2021/12/04 00:52:55;;;;;;;8.27;5.90;;;4.80;96.10;;;;;;2097514;28;20017;-88
2021/12/04 00:53:56;;;;;;;7.05;6.10;;;4.80;96.10;;;;;;2097953;28;20059;-89
2021/12/04 00:54:58;;;;;;;5.95;5.28;;;4.80;96.20;;;;;;2095878;28;20045;-89
2021/12/04 00:55:59;;;;;;;6.80;5.60;;;4.80;96.10;;;;;;2080295;28;20018;-88
2021/12/04 00:56:59;;;;;;;7.07;6.05;;;4.80;96.20;;;;;;2093034;28;20561;-88
2021/12/04 00:58:00;;;;;;;6.50;5.80;;;4.80;96.20;;;;;;2095411;28;20036;-88
2021/12/04 00:59:01;;;;;;;7.07;6.00;;;4.80;96.20;;;;;;2081117;28;20388;-92
2021/12/04 01:00:02;;;;;;;6.45;5.55;;;4.80;96.10;;;;;;2073381;28;20108;-91
2021/12/04 01:01:03;;;;;;;7.75;6.43;;;4.80;96.20;;;;;;2073768;28;20033;-91
2021/12/04 01:02:05;;;;;;;7.45;6.18;;;4.80;96.20;;;;;;2081795;28;20034;-91
2021/12/04 01:03:07;;;;;;;7.45;6.38;;;4.80;96.20;;;;;;2089723;28;20029;-91
2021/12/04 01:04:13;;;;;;;7.93;6.38;;;4.80;96.20;;;;;;2081272;28;20033;-91
2021/12/04 01:05:15;;;;;;;7.30;6.18;;;4.80;96.20;;;;;;2089811;28;20017;-91
2021/12/04 01:06:16;;;;;;;7.32;6.22;;;4.80;96.20;;;;;;2089869;28;20032;-91
2021/12/04 01:07:17;;;;;;;7.38;6.13;;;4.80;96.20;;;;;;2089627;28;20558;-91
2021/12/04 01:08:18;;;;;;;7.82;6.88;;;4.80;96.20;;;;;;2089391;28;20032;-91
2021/12/04 01:09:22;;;;;;;7.63;6.80;;;4.80;96.20;;;;;;2088457;28;20044;-91
2021/12/04 01:10:23;;;;;;;6.97;6.05;;;4.80;96.20;;;;;;2087767;28;20502;-91
2021/12/04 01:11:24;;;;;;;7.68;6.38;;;4.80;96.20;;;;;;2081508;28;20029;-91
2021/12/04 01:12:24;;;;;;;7.80;6.60;;;4.80;96.20;;;;;;2072747;28;20033;-91
2021/12/04 01:13:25;;;;;;;7.30;6.13;;;4.80;96.20;;;;;;2090024;28;20025;-92
2021/12/04 01:14:27;;;;;;;7.53;6.65;;;4.80;96.20;;;;;;2090255;28;20025;-92
2021/12/04 01:15:28;;;;;;;7.18;6.13;;;4.80;96.50;;;;;;2089912;28;20032;-91
2021/12/04 01:16:28;;;;;;;8.18;6.03;;;4.90;96.20;;;;;;2065333;28;20027;-91
2021/12/04 01:17:29;;;;;;;7.13;6.22;;;4.80;96.20;;;;;;2072419;28;20084;-91
2021/12/04 01:18:30;;;;;;;7.28;6.10;;;4.80;96.20;;;;;;2082343;28;20025;-92
2021/12/04 01:19:31;;;;;;;7.57;5.85;;;4.80;96.20;;;;;;2089388;28;20028;-92
2021/12/04 01:20:32;;;;;;;7.32;6.30;;;4.80;96.30;;;;;;2071741;28;20070;-92
2021/12/04 01:21:32;;;;;;;6.95;6.03;;;4.80;96.20;;;;;;2081868;28;20034;-91
2021/12/04 01:22:33;;;;;;;7.53;6.72;;;4.80;96.20;;;;;;2096051;28;20033;-92
2021/12/04 01:23:34;;;;;;;7.93;6.35;;;4.80;96.20;;;;;;2097385;28;20044;-91
2021/12/04 01:24:35;;;;;;;7.25;6.35;;;4.80;96.20;;;;;;2085278;28;20030;-92
2021/12/04 01:25:37;;;;;;;6.93;5.82;;;4.80;96.20;;;;;;2082406;28;20507;-91
2021/12/04 01:26:38;;;;;;;6.20;5.38;;;4.80;96.20;;;;;;2091276;28;20072;-92
2021/12/04 01:27:39;;;;;;;6.93;6.00;;;4.80;96.30;;;;;;2083037;28;20025;-91
2021/12/04 01:28:40;;;;;;;7.40;6.18;;;4.80;96.20;;;;;;2091322;28;20017;-91
2021/12/04 01:29:42;;;;;;;6.95;5.65;;;4.80;96.20;;;;;;2082170;28;20033;-91
2021/12/04 01:30:42;;;;;;;6.93;5.88;;;4.80;96.20;;;;;;2089644;28;20033;-92
2021/12/04 01:31:44;;;;;;;7.18;6.00;;;4.80;96.50;;;;;;2081153;28;20060;-92
2021/12/04 01:32:44;;;;;;;6.95;6.07;;;4.80;96.20;;;;;;2081417;28;20058;-92
2021/12/04 01:33:45;;;;;;;7.30;6.07;;;4.90;96.30;;;;;;2090091;28;20088;-92
2021/12/04 01:34:46;;;;;;;6.88;5.95;;;4.90;96.30;;;;;;2089483;28;20018;-91
2021/12/04 01:35:46;;;;;;;6.90;6.00;;;4.80;96.20;;;;;;2089500;28;20114;-91
2021/12/04 01:36:47;;;;;;;7.22;6.00;;;4.90;96.20;;;;;;2081768;28;20451;-92
2021/12/04 01:37:48;;;;;;;6.97;6.28;;;4.80;96.20;;;;;;2081459;28;20116;-92
2021/12/04 01:38:49;;;;;;;7.43;5.90;;;4.80;96.20;;;;;;2089967;28;20029;-92
2021/12/04 01:39:50;;;;;;;7.20;5.90;;;4.80;96.20;;;;;;2089693;28;20032;-91
2021/12/04 01:40:51;;;;;;;6.93;6.03;;;4.90;96.30;;;;;;2089833;28;20035;-92
2021/12/04 01:41:52;;;;;;;6.70;5.90;;;4.80;96.20;;;;;;2081191;28;20038;-93
2021/12/04 01:42:52;;;;;;;7.25;6.05;;;4.90;96.20;;;;;;2081617;28;20041;-92
2021/12/04 01:43:57;;;;;;;7.47;5.97;;;4.90;96.20;;;;;;2081623;28;20025;-90
2021/12/04 01:44:58;;;;;;;7.57;6.20;;;4.90;96.20;;;;;;2080513;28;20029;-92
2021/12/04 01:45:59;;;;;;;6.93;5.93;;;4.80;96.20;;;;;;2089516;28;20029;-92
2021/12/04 01:47:10;;;;;;;7.18;5.97;;;4.80;96.20;;;;;;2090389;28;20530;-91
2021/12/04 01:48:11;;;;;;;7.60;5.80;;;4.80;96.20;;;;;;2089968;28;20128;-92
2021/12/04 01:49:11;;;;;;;6.25;5.30;;;4.90;96.20;;;;;;2089785;28;20033;-92
2021/12/04 01:50:12;;;;;;;7.25;5.88;;;4.80;96.20;;;;;;2089598;28;20112;-91
2021/12/04 01:51:13;;;;;;;6.50;5.45;;;4.80;96.20;;;;;;2090094;28;20044;-92
2021/12/04 01:52:15;;;;;;;7.80;5.75;;;4.80;96.20;;;;;;2088975;28;20021;-92
2021/12/04 01:53:16;;;;;;;6.72;5.93;;;4.80;96.20;;;;;;2088764;28;20029;-92
2021/12/04 01:54:16;;;;;;;7.65;5.63;;;4.90;96.20;;;;;;2087690;28;20029;-92
2021/12/04 01:55:17;;;;;;;7.18;5.82;;;4.80;96.20;;;;;;2073919;28;20109;-92
2021/12/04 01:56:18;;;;;;;6.68;5.80;;;4.80;96.20;;;;;;2080636;28;20542;-92
2021/12/04 01:57:21;;;;;;;7.85;6.30;;;4.80;96.20;;;;;;2088856;28;20037;-92
2021/12/04 01:58:23;;;;;;;8.55;5.78;;;4.80;96.20;;;;;;2090170;28;20028;-92
2021/12/04 01:59:23;;;;;;;6.85;5.78;;;4.80;96.20;;;;;;2089603;28;20144;-92
2021/12/04 02:00:24;;;;;;;7.55;5.90;;;4.90;96.20;;;;;;2073251;28;20124;-92
2021/12/04 02:01:25;;;;;;;6.60;5.63;;;4.80;96.20;;;;;;2072898;28;20026;-92
2021/12/04 02:02:26;;;;;;;7.13;5.60;;;4.80;96.20;;;;;;2081932;28;20534;-92
2021/12/04 02:03:26;;;;;;;6.82;5.68;;;4.80;96.20;;;;;;2081774;28;20039;-91
2021/12/04 02:04:27;;;;;;;6.75;5.95;;;4.80;96.20;;;;;;2080253;28;20132;-91
2021/12/04 02:05:28;;;;;;;7.10;5.32;;;4.80;96.20;;;;;;2074241;28;20057;-92
2021/12/04 02:06:28;;;;;;;6.75;5.63;;;4.80;96.20;;;;;;2063625;28;20046;-91
2021/12/04 02:07:30;;;;;;;6.50;5.70;;;4.80;96.20;;;;;;2058767;28;20114;-92
2021/12/04 02:08:31;;;;;;;7.40;6.05;;;4.80;96.20;;;;;;2068272;28;20117;-91
2021/12/04 02:09:32;;;;;;;7.05;5.57;;;4.80;96.20;;;;;;2073383;28;20034;-92
2021/12/04 02:10:35;;;;;;;7.43;5.85;;;4.80;96.20;;;;;;2085518;28;20407;-90
2021/12/04 02:11:36;;;;;;;7.22;6.05;;;4.80;96.20;;;;;;2091669;28;20021;-90
2021/12/04 02:12:37;;;;;;;7.80;6.32;;;4.80;96.20;;;;;;2091634;28;20116;-91
2021/12/04 02:13:37;;;;;;;6.75;5.85;;;4.80;96.30;;;;;;2093468;28;20111;-90
2021/12/04 02:14:40;;;;;;;7.57;6.20;;;4.80;96.20;;;;;;2074533;28;20554;-91
2021/12/04 02:15:42;;;;;;;7.72;5.57;;;4.80;96.30;;;;;;2080828;28;20033;-91
2021/12/04 02:16:45;;;;;;;6.95;5.85;;;4.80;96.20;;;;;;2075012;28;20519;-91
2021/12/04 02:17:46;;;;;;;6.07;5.10;;;4.80;96.20;;;;;;2075280;28;20041;-91
2021/12/04 02:18:47;;;;;;;6.60;5.50;;;4.80;96.20;;;;;;2082655;28;20030;-91
2021/12/04 02:19:48;;;;;;;8.13;6.07;;;4.80;96.20;;;;;;2083010;28;20087;-92
2021/12/04 02:20:49;;;;;;;7.25;5.95;;;4.80;96.20;;;;;;2082587;28;20150;-91
2021/12/04 02:21:50;;;;;;;7.10;5.80;;;4.80;96.20;;;;;;2090749;28;20025;-91
2021/12/04 02:22:51;;;;;;;7.07;6.00;;;4.80;96.30;;;;;;2083235;28;20029;-91
2021/12/04 02:23:53;;;;;;;7.32;6.18;;;4.80;96.30;;;;;;2083182;28;20029;-91
2021/12/04 02:24:53;;;;;;;6.88;5.70;;;4.80;96.30;;;;;;2088849;28;20052;-91
2021/12/04 02:25:54;;;;;;;7.10;5.63;;;4.80;96.30;;;;;;2083620;28;20030;-91
2021/12/04 02:26:55;;;;;;;7.32;5.70;;;4.80;96.30;;;;;;2078575;28;20368;-91
2021/12/04 02:27:56;;;;;;;7.25;5.82;;;4.80;96.30;;;;;;2083092;28;20484;-92
2021/12/04 02:28:57;;;;;;;7.40;6.32;;;4.80;96.30;;;;;;2090971;28;20039;-92
2021/12/04 02:29:58;;;;;;;7.57;6.43;;;4.80;96.20;;;;;;2082230;28;20040;-92
2021/12/04 02:30:59;;;;;;;6.88;6.18;;;4.80;96.20;;;;;;2080552;28;20033;-91
2021/12/04 02:32:00;;;;;;;6.68;5.65;;;4.80;96.50;;;;;;2088643;28;20032;-91
2021/12/04 02:33:10;;;;;;;7.75;6.35;;;4.80;96.30;;;;;;2090117;28;20483;-91
2021/12/04 02:34:19;;;;;;;7.35;6.15;;;4.80;96.30;;;;;;2090210;28;20052;-91
2021/12/04 02:35:20;;;;;;;7.50;6.35;;;4.80;96.30;;;;;;2090144;28;20029;-91
2021/12/04 02:36:21;;;;;;;6.57;5.65;;;4.80;96.30;;;;;;2074612;28;20034;-91
2021/12/04 02:37:21;;;;;;;7.80;6.57;;;4.80;96.30;;;;;;2075425;28;20052;-91
2021/12/04 02:38:25;;;;;;;7.18;6.07;;;4.80;96.50;;;;;;2075161;28;20105;-91
2021/12/04 02:39:34;;;;;;;7.53;6.40;;;4.80;96.20;;;;;;2072045;28;20041;-92
2021/12/04 02:40:34;;;;;;;7.20;6.10;;;4.80;96.30;;;;;;2090129;28;20119;-91
2021/12/04 02:41:35;;;;;;;7.68;6.30;;;4.80;96.20;;;;;;2096333;28;20024;-87
2021/12/04 02:42:37;;;;;;;7.28;5.95;;;4.80;96.20;;;;;;2091583;28;20025;-88
2021/12/04 02:43:37;;;;;;;7.75;6.03;;;4.80;96.20;;;;;;2082671;28;20467;-87
2021/12/04 02:44:40;;;;;;;7.47;5.90;;;4.80;96.20;;;;;;2090709;28;20045;-88
2021/12/04 02:45:43;;;;;;;7.70;6.40;;;4.80;96.30;;;;;;2090535;28;20029;-87
2021/12/04 02:46:43;;;;;;;8.02;6.22;;;4.80;96.30;;;;;;2082507;28;20013;-88
2021/12/04 02:47:44;;;;;;;7.47;6.38;;;4.80;96.30;;;;;;2084102;28;20026;-89
2021/12/04 02:48:47;;;;;;;7.18;5.97;;;4.80;96.30;;;;;;2085420;28;20002;-89
2021/12/04 02:49:47;;;;;;;7.07;5.95;;;4.80;96.30;;;;;;2078253;28;20124;-91
2021/12/04 02:50:48;;;;;;;7.60;6.03;;;4.80;96.30;;;;;;2072964;28;20034;-91
2021/12/04 02:51:49;;;;;;;7.38;6.15;;;4.80;96.30;;;;;;2074814;28;20026;-91
2021/12/04 02:52:49;;;;;;;7.25;6.07;;;4.80;96.30;;;;;;2082908;28;20025;-92
2021/12/04 02:53:50;;;;;;;7.75;6.22;;;4.90;96.30;;;;;;2074531;28;20030;-91
2021/12/04 02:54:51;;;;;;;7.65;6.03;;;4.80;96.30;;;;;;2080678;28;20034;-91
2021/12/04 02:55:53;;;;;;;7.18;5.63;;;4.90;96.30;;;;;;2083704;28;20037;-91
2021/12/04 02:56:53;;;;;;;7.05;5.85;;;4.80;96.30;;;;;;2082476;28;20112;-91
2021/12/04 02:57:54;;;;;;;6.78;5.57;;;4.90;96.30;;;;;;2082819;28;20101;-91
2021/12/04 02:59:01;;;;;;;7.18;5.95;;;4.90;96.60;;;;;;2082650;28;20033;-92
2021/12/04 03:00:03;;;;;;;6.57;5.53;;;4.80;96.30;;;;;;2091082;28;20084;-90
2021/12/04 03:01:04;;;;;;;7.15;5.57;;;4.80;96.20;;;;;;2087396;28;20037;-91
2021/12/04 03:02:07;;;;;;;7.32;5.60;;;4.80;96.30;;;;;;2082546;28;20404;-91
2021/12/04 03:03:07;;;;;;;7.15;5.88;;;4.80;96.30;;;;;;2089106;28;20017;-92
2021/12/04 03:04:10;;;;;;;7.93;5.90;;;4.80;96.30;;;;;;2091057;28;20021;-90
2021/12/04 03:05:12;;;;;;;6.85;5.55;;;4.80;96.30;;;;;;2090579;28;20021;-92
2021/12/04 03:06:12;;;;;;;6.65;5.03;;;4.80;96.30;;;;;;2090693;28;20040;-92
2021/12/04 03:07:13;;;;;;;6.55;5.22;;;4.90;96.30;;;;;;2091007;28;20507;-92
2021/12/04 03:08:15;;;;;;;6.10;5.10;;;4.80;96.30;;;;;;2090281;28;20029;-91
2021/12/04 03:09:16;;;;;;;6.57;5.32;;;4.90;96.30;;;;;;2090318;28;20021;-91
2021/12/04 03:10:17;;;;;;;6.53;5.15;;;4.80;96.30;;;;;;2090372;28;20033;-92
2021/12/04 03:11:18;;;;;;;6.60;5.22;;;4.90;96.30;;;;;;2094833;28;20029;-92
2021/12/04 03:12:20;;;;;;;5.82;4.97;;;4.80;96.30;;;;;;2092879;28;20044;-92
2021/12/04 03:13:22;;;;;;;6.65;5.10;;;4.90;96.30;;;;;;2090715;28;20108;-92
2021/12/04 03:14:22;;;;;;;7.03;4.93;;;4.90;96.30;;;;;;2090089;28;20033;-91
2021/12/04 03:15:23;;;;;;;6.00;4.75;;;4.90;96.30;;;;;;2091064;28;20030;-92
2021/12/04 03:16:24;;;;;;;5.90;5.13;;;4.90;96.30;;;;;;2090938;28;20052;-92
2021/12/04 03:17:26;;;;;;;6.30;4.85;;;4.80;96.30;;;;;;2090551;28;20104;-91
2021/12/04 03:18:27;;;;;;;6.00;4.90;;;4.90;96.30;;;;;;2090162;28;20021;-92
2021/12/04 03:19:28;;;;;;;6.47;5.05;;;4.80;96.30;;;;;;2090388;28;20109;-92
2021/12/04 03:20:29;;;;;;;6.32;4.80;;;4.90;96.30;;;;;;2082134;28;20519;-91
2021/12/04 03:21:31;;;;;;;5.80;4.78;;;4.90;96.60;;;;;;2079093;28;20091;-91
2021/12/04 03:22:31;;;;;;;6.60;4.65;;;4.90;96.30;;;;;;2080054;28;20048;-92
2021/12/04 03:23:40;;;;;;;5.78;4.60;;;4.90;96.30;;;;;;2073595;28;20036;-92
2021/12/04 03:24:42;;;;;;;5.50;4.20;;;4.80;96.30;;;;;;2076106;28;20033;-92
2021/12/04 03:25:46;;;;;;;6.32;4.40;;;4.90;96.30;;;;;;2090966;28;20061;-92
2021/12/04 03:26:50;;;;;;;6.15;4.50;;;4.90;96.30;;;;;;2091201;28;20040;-91
2021/12/04 03:27:51;;;;;;;6.07;4.38;;;4.90;96.30;;;;;;2087765;28;20333;-91
2021/12/04 03:28:53;;;;;;;5.38;4.35;;;4.90;96.30;;;;;;2094343;28;20630;-91
2021/12/04 03:30:07;;;;;;;7.18;4.40;;;4.90;96.30;;;;;;2090877;28;20032;-92
2021/12/04 03:31:19;;;;;;;5.85;4.20;;;4.90;96.30;;;;;;2083864;28;20044;-91
2021/12/04 03:32:47;;;;;;;5.55;4.40;;;4.90;96.30;;;;;;2076505;28;20029;-92
2021/12/04 03:35:25;;;;;;;5.88;4.35;;;4.90;96.30;;;;;;2087267;28;20578;-90
2021/12/04 03:41:57;;;;;;;5.15;3.83;;;4.90;96.30;;;;;;2065674;28;20477;-91
2021/12/04 03:43:00;;;;;;;5.07;3.90;;;4.90;96.20;;;;;;2074799;28;20165;-91
2021/12/04 03:44:00;;;;;;;4.93;3.88;;;4.90;96.30;;;;;;2074820;28;20112;-91
2021/12/04 03:45:03;;;;;;;5.38;4.00;;;4.90;96.20;;;;;;2090513;28;20036;-91
2021/12/04 03:46:06;;;;;;;6.07;4.10;;;4.90;96.30;;;;;;2089047;28;20032;-91
2021/12/04 03:47:08;;;;;;;5.38;3.90;;;4.90;96.30;;;;;;2082970;28;20113;-91
2021/12/04 03:49:29;;;;;;;5.82;4.40;;;4.90;96.30;;;;;;2091360;28;20067;-91
2021/12/04 03:50:30;;;;;;;4.75;3.60;;;4.90;96.30;;;;;;2090680;28;20029;-91
2021/12/04 03:51:31;;;;;;;5.15;4.00;;;4.90;96.30;;;;;;2090374;28;20060;-91
2021/12/04 03:52:31;;;;;;;5.50;4.30;;;4.90;96.30;;;;;;2088849;28;20028;-91
2021/12/04 03:53:33;;;;;;;5.28;4.22;;;4.90;96.30;;;;;;2073334;28;20532;-91
2021/12/04 03:54:34;;;;;;;5.40;4.13;;;4.90;96.30;;;;;;2074487;28;20029;-91
2021/12/04 03:55:35;;;;;;;6.22;4.32;;;4.90;96.30;;;;;;2067553;28;20027;-91
2021/12/04 03:56:36;;;;;;;5.40;4.15;;;4.90;96.30;;;;;;2057883;28;20031;-91
2021/12/04 03:57:44;;;;;;;6.30;4.50;;;4.90;96.30;;;;;;2066780;28;20393;-92
2021/12/04 03:58:45;;;;;;;6.13;4.40;;;5.00;96.30;;;;;;2074452;28;20034;-92
2021/12/04 03:59:48;;;;;;;5.75;4.28;;;5.00;96.30;;;;;;2067090;28;20132;-91
2021/12/04 04:00:49;;;;;;;5.72;4.22;;;5.00;96.30;;;;;;2069207;28;20033;-91
2021/12/04 04:01:49;;;;;;;5.50;4.30;;;4.90;96.30;;;;;;2074037;28;20449;-91
2021/12/04 04:02:50;;;;;;;5.07;4.05;;;4.90;96.30;;;;;;2066146;28;20030;-91
2021/12/04 04:03:51;;;;;;;5.80;4.63;;;5.00;96.60;;;;;;2081767;28;20048;-90
2021/12/04 04:04:52;;;;;;;6.20;4.40;;;5.00;96.30;;;;;;2082902;28;20196;-91
2021/12/04 04:05:54;;;;;;;5.30;3.97;;;4.90;96.30;;;;;;2085130;28;20509;-91
2021/12/04 04:06:54;;;;;;;5.47;4.25;;;5.00;96.40;;;;;;2087946;28;20031;-91
2021/12/04 04:07:55;;;;;;;6.30;4.50;;;5.00;96.30;;;;;;2087897;28;20036;-91
2021/12/04 04:08:56;;;;;;;5.68;4.25;;;5.00;96.30;;;;;;2088494;28;20037;-91
2021/12/04 04:09:56;;;;;;;6.13;4.38;;;5.00;96.30;;;;;;2082182;28;20029;-91
2021/12/04 04:10:57;;;;;;;5.70;4.35;;;5.00;96.30;;;;;;2073009;28;20048;-91
2021/12/04 04:11:58;;;;;;;6.00;4.68;;;5.00;96.30;;;;;;2090350;28;20025;-91
2021/12/04 04:12:59;;;;;;;5.60;4.25;;;5.00;96.30;;;;;;2091169;28;20475;-91
2021/12/04 04:14:00;;;;;;;5.80;4.07;;;5.00;96.30;;;;;;2089163;28;20029;-92
2021/12/04 04:15:00;;;;;;;6.03;4.55;;;5.00;96.30;;;;;;2090291;28;20422;-90
2021/12/04 04:16:01;;;;;;;5.40;4.20;;;5.00;96.30;;;;;;2089913;28;20036;-91
2021/12/04 04:17:04;;;;;;;7.20;4.70;;;5.00;96.30;;;;;;2081859;28;20033;-91
2021/12/04 04:18:05;;;;;;;6.47;4.30;;;5.00;96.30;;;;;;2082691;28;20026;-90
2021/12/04 04:19:06;;;;;;;6.18;4.60;;;5.00;96.30;;;;;;2090547;28;20458;-91
2021/12/04 04:20:08;;;;;;;5.93;4.75;;;5.00;96.30;;;;;;2079544;28;20026;-91
2021/12/04 04:21:08;;;;;;;6.13;4.68;;;5.00;96.30;;;;;;2065769;28;20065;-91
2021/12/04 04:22:09;;;;;;;6.15;4.47;;;5.00;96.30;;;;;;2065833;28;20034;-91
2021/12/04 04:23:10;;;;;;;6.95;5.03;;;5.00;96.30;;;;;;2041851;29;20031;-91
2021/12/04 04:24:12;;;;;;;7.00;4.57;;;5.00;96.30;;;;;;2049681;28;20118;-91
2021/12/04 04:25:16;;;;;;;6.50;4.75;;;5.00;96.30;;;;;;2066160;28;20026;-91
2021/12/04 04:26:16;;;;;;;7.25;4.55;;;5.10;96.30;;;;;;2058254;28;20126;-91
2021/12/04 04:27:17;;;;;;;6.93;5.03;;;5.00;96.30;;;;;;2042188;29;20027;-91
2021/12/04 04:28:17;;;;;;;6.15;4.47;;;5.00;96.30;;;;;;2042018;29;20059;-91
2021/12/04 04:29:19;;;;;;;7.60;5.30;;;5.00;96.30;;;;;;2049859;29;20074;-91
2021/12/04 04:30:20;;;;;;;6.63;5.05;;;5.00;96.30;;;;;;2051594;28;20417;-90
2021/12/04 04:31:20;;;;;;;6.95;4.72;;;5.00;96.30;;;;;;2065326;28;20337;-91
2021/12/04 04:32:23;;;;;;;7.88;5.53;;;5.00;96.20;;;;;;2059784;28;20378;-90
2021/12/04 04:33:24;;;;;;;7.00;4.88;;;5.00;96.30;;;;;;2073860;28;20023;-87
2021/12/04 04:35:31;;;;;;;8.88;5.38;;;5.00;96.30;;;;;;2083239;28;20018;-90
2021/12/04 04:39:17;;;;;;;7.45;4.82;;;5.00;96.30;;;;;;2091788;28;20030;-90
2021/12/04 04:58:05;;;;;;;8.15;5.25;;;5.00;96.20;;;;;;2063176;28;20033;-91
2021/12/04 05:01:56;;;;;;;7.88;5.50;;;5.00;96.20;;;;;;2064126;28;20026;-92
2021/12/04 05:12:14;;;;;;;8.48;5.70;;;5.00;96.20;;;;;;2073460;28;20494;-91
2021/12/04 05:13:23;;;;;;;9.52;6.03;;;4.90;96.20;;;;;;2068480;28;20041;-91
2021/12/04 05:14:23;;;;;;;8.63;5.78;;;5.00;96.20;;;;;;2065331;28;20037;-91
2021/12/04 05:16:44;;;;;;;8.50;6.10;;;5.00;96.20;;;;;;2061747;28;20027;-91
2021/12/04 05:18:58;;;;;;;9.20;5.95;;;5.00;96.20;;;;;;2075173;28;20124;-91
2021/12/04 05:19:58;;;;;;;9.45;5.93;;;5.00;96.20;;;;;;2077436;28;20026;-91
2021/12/04 05:21:05;;;;;;;11.63;6.70;;;5.00;96.20;;;;;;2086629;28;20128;-91
2021/12/04 05:22:07;;;;;;;10.20;6.35;;;5.00;96.20;;;;;;2088964;28;20048;-91
2021/12/04 05:23:10;;;;;;;11.30;6.30;;;5.00;96.20;;;;;;2089494;28;20469;-91
2021/12/04 05:24:11;;;;;;;8.90;6.47;;;5.00;96.20;;;;;;2080819;28;20029;-91
2021/12/04 05:25:11;;;;;;;10.25;6.90;;;5.00;96.20;;;;;;2089884;28;20029;-90
2021/12/04 05:26:16;;;;;;;9.00;6.30;;;5.00;96.30;;;;;;2089590;28;20039;-92
2021/12/04 05:27:17;;;;;;;11.48;7.18;;;5.00;96.30;;;;;;2082256;28;20139;-91
2021/12/04 05:28:17;;;;;;;9.40;6.63;;;5.00;96.30;;;;;;2073469;28;20033;-91
2021/12/04 05:29:18;;;;;;;11.27;7.35;;;5.00;96.30;;;;;;2080096;28;20041;-91
2021/12/04 05:30:19;;;;;;;11.85;7.28;;;5.00;96.30;;;;;;2082828;28;20448;-91
2021/12/04 05:31:21;;;;;;;11.20;7.07;;;5.00;96.30;;;;;;2088687;28;20079;-91
2021/12/04 05:32:22;;;;;;;10.05;6.97;;;5.00;96.30;;;;;;2080287;28;20109;-91
2021/12/04 05:33:23;;;;;;;9.75;6.63;;;5.00;96.30;;;;;;2081346;28;20044;-91
2021/12/04 05:34:24;;;;;;;10.27;7.47;;;5.00;96.30;;;;;;2087235;28;20036;-91
2021/12/04 05:35:26;;;;;;;10.18;6.95;;;5.00;96.30;;;;;;2082220;28;20025;-91
2021/12/04 05:36:26;;;;;;;11.98;6.90;;;5.00;96.30;;;;;;2087455;28;20356;-91
2021/12/04 05:37:27;;;;;;;14.07;6.90;;;5.00;96.30;;;;;;2079476;28;20079;-92
2021/12/04 05:38:28;;;;;;;10.50;7.10;;;5.00;96.30;;;;;;2088249;28;20116;-91
2021/12/04 05:39:29;;;;;;;9.90;7.15;;;5.00;96.30;;;;;;2089203;28;20083;-92
2021/12/04 05:40:29;;;;;;;9.63;6.55;;;5.00;96.30;;;;;;2089839;28;20044;-91
2021/12/04 05:41:30;;;;;;;11.02;7.03;;;5.10;96.40;;;;;;2081101;28;20029;-91
2021/12/04 05:42:31;;;;;;;9.80;6.70;;;5.00;96.30;;;;;;2081434;28;20067;-92
2021/12/04 05:43:34;;;;;;;10.80;7.22;;;5.00;96.30;;;;;;2081855;28;20526;-91
2021/12/04 05:44:35;;;;;;;9.70;7.00;;;5.00;96.30;;;;;;2072517;28;20041;-92
2021/12/04 05:45:42;;;;;;;10.60;6.80;;;5.10;96.40;;;;;;2064848;28;20034;-91
2021/12/04 05:46:53;;;;;;;10.20;6.68;;;5.10;96.40;;;;;;2067149;28;20140;-92
2021/12/04 05:48:08;;;;;;;11.57;7.32;;;5.00;96.30;;;;;;2088301;28;20025;-92
2021/12/04 05:50:33;;;;;;;12.77;6.82;;;5.10;96.30;;;;;;2067792;28;20415;-92
2021/12/04 05:53:14;;;;;;;9.45;6.22;;;5.00;96.30;;;;;;2082021;28;19924;-91
2021/12/04 05:54:30;;;;;;;10.57;6.43;;;5.00;96.30;;;;;;2078857;28;20569;-91
2021/12/04 05:55:40;;;;;;;9.95;6.32;;;5.00;96.20;;;;;;2080556;28;20101;-91
2021/12/04 05:56:41;;;;;;;9.23;6.03;;;5.00;96.30;;;;;;2089551;28;20029;-92
2021/12/04 05:57:42;;;;;;;9.30;6.38;;;5.00;96.30;;;;;;2088415;28;20033;-91
2021/12/04 05:58:43;;;;;;;10.93;6.20;;;5.00;96.30;;;;;;2073217;28;20037;-92
2021/12/04 05:59:43;;;;;;;10.32;6.50;;;5.00;96.30;;;;;;2073307;28;20042;-91
2021/12/04 06:00:44;;;;;;;10.07;6.43;;;5.00;96.30;;;;;;2073709;28;20041;-92
2021/12/04 06:01:44;;;;;;;10.63;6.88;;;5.00;96.30;;;;;;2072975;28;20127;-91
2021/12/04 06:02:46;;;;;;;10.57;7.10;;;5.00;96.30;;;;;;2086626;28;20095;-91
2021/12/04 06:03:47;;;;;;;10.07;6.47;;;5.00;96.30;;;;;;2085759;28;20021;-91
2021/12/04 06:04:47;;;;;;;10.23;6.63;;;5.00;96.30;;;;;;2089334;28;20033;-91
2021/12/04 06:05:48;;;;;;;12.38;6.85;;;5.00;96.30;;;;;;2089492;28;20079;-91
2021/12/04 06:06:49;;;;;;;11.38;7.15;;;5.00;96.30;;;;;;2081945;28;20029;-91
2021/12/04 06:07:49;;;;;;;11.73;6.70;;;5.00;96.30;;;;;;2081655;28;20179;-91
2021/12/04 06:08:50;;;;;;;10.55;6.80;;;5.00;96.30;;;;;;2066079;28;20476;-91
2021/12/04 06:09:51;;;;;;;11.05;6.90;;;5.10;96.40;;;;;;2073104;28;20025;-90
2021/12/04 06:10:52;;;;;;;11.15;6.60;;;5.00;96.40;;;;;;2090476;28;20572;-91
2021/12/04 06:11:53;;;;;;;12.95;7.13;;;5.00;96.40;;;;;;2089634;28;20025;-91
2021/12/04 06:12:53;;;;;;;12.10;7.20;;;5.00;96.40;;;;;;2081727;28;20029;-91
2021/12/04 06:13:55;;;;;;;11.68;7.25;;;5.00;96.30;;;;;;2081260;28;20483;-90
2021/12/04 06:14:56;;;;;;;10.90;6.65;;;5.00;96.30;;;;;;2081324;28;20386;-91
2021/12/04 06:15:57;;;;;;;11.43;6.85;;;5.00;96.30;;;;;;2082062;28;20080;-92
2021/12/04 06:16:57;;;;;;;10.50;6.88;;;5.00;96.30;;;;;;2073541;28;20412;-91
2021/12/04 06:17:58;;;;;;;12.40;7.30;;;5.00;96.30;;;;;;2057339;28;20034;-92
2021/12/04 06:19:08;;;;;;;12.00;6.90;;;5.00;96.40;;;;;;2064808;28;20034;-92
2021/12/04 06:22:48;;;;;;;10.23;6.40;;;5.00;96.40;;;;;;2094157;28;20518;-89
2021/12/04 06:23:49;;;;;;;11.60;6.30;;;5.00;96.40;;;;;;2098568;28;20025;-88
2021/12/04 06:24:49;;;;;;;10.80;5.90;;;5.00;96.40;;;;;;2098478;28;20044;-88
2021/12/04 06:25:50;;;;;;;10.20;6.03;;;5.00;96.40;;;;;;2098680;28;20033;-88
2021/12/04 06:26:51;;;;;;;10.52;6.43;;;5.00;96.40;;;;;;2098366;28;20024;-89
2021/12/04 06:27:52;;;;;;;11.95;6.50;;;5.10;96.40;;;;;;2098273;28;20020;-87
2021/12/04 06:28:53;;;;;;;12.23;6.68;;;5.00;96.40;;;;;;2089653;28;20021;-91